Time;durP1;ratioP1;P1;durP2;ratioP2;P2;SDS_P1;SDS_P2;PMS_P1;PMS_P2;Temp;Humidity;BMP_temperature;BMP_pressure;BME280_temperature;BME280_humidity;BME280_pressure;Samples;Min_cycle;Max_cycle;Signal;HPM_P1;HPM_P2
2022/03/12 00:01:15;;;;;;;17.08;5.53;;;5.10;41.10;;;;;;5011906;28;20025;-66
2022/03/12 00:03:41;;;;;;;14.70;5.72;;;4.90;41.00;;;;;;5011948;28;20036;-65
2022/03/12 00:06:09;;;;;;;15.20;6.60;;;4.90;40.90;;;;;;5010462;28;20053;-65
2022/03/12 00:08:44;;;;;;;16.85;5.60;;;4.90;40.80;;;;;;5011766;28;20026;-65
2022/03/12 00:11:45;;;;;;;12.45;5.95;;;4.90;40.90;;;;;;5010615;28;20025;-67
2022/03/12 00:14:11;;;;;;;20.17;6.18;;;4.90;41.00;;;;;;5011483;28;20022;-66
2022/03/12 00:16:41;;;;;;;18.83;5.97;;;4.90;40.80;;;;;;5012374;28;20026;-66
2022/03/12 00:19:07;;;;;;;12.65;6.22;;;4.90;40.90;;;;;;5011904;28;20030;-66
2022/03/12 00:21:35;;;;;;;12.75;6.25;;;5.00;40.90;;;;;;5011669;28;20092;-67
2022/03/12 00:24:02;;;;;;;13.70;6.03;;;4.90;40.80;;;;;;5011852;28;20096;-66
2022/03/12 00:26:29;;;;;;;21.20;5.88;;;4.90;40.70;;;;;;5010703;28;20122;-65
2022/03/12 00:28:55;;;;;;;14.27;5.90;;;4.90;41.00;;;;;;5011551;28;20030;-66
2022/03/12 00:31:21;;;;;;;11.85;5.82;;;4.90;41.10;;;;;;5011880;28;20040;-66
2022/03/12 00:33:47;;;;;;;11.82;6.20;;;4.90;41.10;;;;;;5011546;28;20129;-67
2022/03/12 00:36:14;;;;;;;15.32;6.00;;;4.90;40.80;;;;;;5011438;28;20134;-67
2022/03/12 00:38:40;;;;;;;13.55;5.55;;;4.90;41.10;;;;;;5011425;28;20037;-66
2022/03/12 00:41:07;;;;;;;19.88;5.88;;;4.80;41.10;;;;;;5011252;28;20025;-66
2022/03/12 00:43:33;;;;;;;14.32;5.78;;;4.80;41.20;;;;;;5011716;28;20037;-66
2022/03/12 00:45:59;;;;;;;13.77;5.90;;;4.70;41.20;;;;;;5011323;28;20034;-67
2022/03/12 00:48:25;;;;;;;13.00;6.85;;;4.70;41.30;;;;;;5011098;28;20038;-68
2022/03/12 00:50:50;;;;;;;16.17;6.47;;;4.70;41.40;;;;;;5011213;28;20057;-65
2022/03/12 00:53:16;;;;;;;15.25;6.60;;;4.60;41.50;;;;;;5011284;28;20049;-66
2022/03/12 00:55:42;;;;;;;13.25;5.65;;;4.60;41.60;;;;;;5011581;28;20363;-66
2022/03/12 00:58:07;;;;;;;12.63;5.43;;;4.50;41.70;;;;;;5010002;28;20052;-65
2022/03/12 01:00:34;;;;;;;13.50;6.22;;;4.60;41.70;;;;;;5011294;28;20099;-66
2022/03/12 01:03:00;;;;;;;12.73;6.03;;;4.60;41.60;;;;;;5011216;28;20037;-68
2022/03/12 01:05:47;;;;;;;13.07;6.28;;;4.50;41.70;;;;;;5011294;28;20034;-65
2022/03/12 01:08:13;;;;;;;15.30;5.63;;;4.50;41.70;;;;;;5011042;28;20456;-64
2022/03/12 01:10:39;;;;;;;17.30;6.78;;;4.40;41.90;;;;;;5010351;28;20112;-66
2022/03/12 01:13:04;;;;;;;12.52;6.00;;;4.30;42.20;;;;;;5011033;28;20061;-67
2022/03/12 01:15:32;;;;;;;9.02;5.07;;;4.30;42.70;;;;;;5011092;28;20484;-66
2022/03/12 01:17:58;;;;;;;13.32;6.03;;;4.30;42.00;;;;;;5011216;28;20049;-65
2022/03/12 01:20:23;;;;;;;13.30;6.10;;;4.20;42.10;;;;;;5014776;28;20061;-66
2022/03/12 01:22:49;;;;;;;23.00;6.15;;;4.20;42.00;;;;;;5015418;28;20116;-66
2022/03/12 01:25:15;;;;;;;20.27;6.38;;;4.20;42.20;;;;;;5014877;28;20048;-65
2022/03/12 01:27:41;;;;;;;9.27;4.93;;;4.20;42.30;;;;;;5014685;28;20026;-66
2022/03/12 01:30:08;;;;;;;13.85;6.13;;;4.20;42.20;;;;;;5014770;28;20038;-66
2022/03/12 01:32:34;;;;;;;14.38;6.45;;;4.20;42.10;;;;;;5013618;28;20034;-65
2022/03/12 01:34:59;;;;;;;12.18;6.53;;;4.10;42.10;;;;;;5014536;28;20087;-65
2022/03/12 01:37:25;;;;;;;14.18;6.43;;;4.10;42.30;;;;;;5015248;28;20013;-65
2022/03/12 01:39:50;;;;;;;13.23;5.43;;;4.20;42.20;;;;;;5014592;28;20402;-65
2022/03/12 01:42:19;;;;;;;13.73;5.97;;;4.30;42.10;;;;;;5014572;28;20460;-66
2022/03/12 01:44:45;;;;;;;19.85;6.22;;;4.30;42.00;;;;;;5014475;28;20479;-65
2022/03/12 01:47:11;;;;;;;14.32;5.05;;;4.20;42.00;;;;;;5014201;28;20096;-66
2022/03/12 01:49:37;;;;;;;13.50;5.55;;;4.20;41.80;;;;;;5014805;28;20026;-65
2022/03/12 01:52:04;;;;;;;13.45;5.40;;;4.20;41.70;;;;;;5014202;28;20038;-67
2022/03/12 01:54:30;;;;;;;16.73;6.38;;;4.10;42.00;;;;;;5014244;28;20033;-65
2022/03/12 01:56:58;;;;;;;11.88;5.60;;;4.10;42.00;;;;;;5013122;28;20060;-65
2022/03/12 01:59:24;;;;;;;11.93;5.83;;;4.10;42.00;;;;;;5014210;28;20041;-64
2022/03/12 02:01:54;;;;;;;12.55;5.60;;;4.10;41.80;;;;;;5014502;28;20294;-66
2022/03/12 02:04:24;;;;;;;14.20;6.07;;;4.10;42.00;;;;;;5014593;28;20018;-66
2022/03/12 02:06:51;;;;;;;11.57;5.47;;;4.10;41.80;;;;;;5014093;28;20040;-66
2022/03/12 02:09:17;;;;;;;12.93;5.72;;;4.10;41.80;;;;;;5014040;28;20037;-66
2022/03/12 02:11:50;;;;;;;12.18;5.38;;;4.10;41.60;;;;;;5013922;28;20099;-65
2022/03/12 02:14:24;;;;;;;9.18;5.10;;;4.10;41.50;;;;;;5013983;28;20475;-66
2022/03/12 02:16:55;;;;;;;12.35;5.13;;;4.00;42.10;;;;;;5014286;28;20371;-66
2022/03/12 02:19:25;;;;;;;14.88;5.63;;;4.00;41.70;;;;;;5014532;28;20034;-65
2022/03/12 02:21:53;;;;;;;11.93;4.85;;;4.00;41.70;;;;;;5013839;28;20099;-65
2022/03/12 02:24:22;;;;;;;20.35;5.40;;;4.00;41.80;;;;;;5013665;28;20420;-67
2022/03/12 02:26:48;;;;;;;14.98;5.88;;;3.90;41.70;;;;;;5013677;28;20030;-65
2022/03/12 02:29:20;;;;;;;12.10;5.43;;;4.00;41.70;;;;;;5013390;28;20034;-66
2022/03/12 02:31:49;;;;;;;12.63;5.38;;;3.90;41.50;;;;;;5013871;28;20030;-65
2022/03/12 02:34:22;;;;;;;14.93;5.40;;;3.90;41.60;;;;;;5012608;28;20136;-65
2022/03/12 02:36:50;;;;;;;12.15;5.13;;;3.90;41.60;;;;;;5029553;28;20030;-66
2022/03/12 02:39:17;;;;;;;13.88;4.97;;;3.90;41.60;;;;;;5033156;28;20026;-66
2022/03/12 02:41:43;;;;;;;13.17;4.93;;;3.80;41.40;;;;;;5033290;28;20034;-66
2022/03/12 02:44:20;;;;;;;10.35;4.93;;;3.80;41.60;;;;;;5033020;28;20262;-65
2022/03/12 02:47:20;;;;;;;16.30;5.47;;;3.70;41.70;;;;;;5032442;28;20037;-66
2022/03/12 02:49:49;;;;;;;11.00;5.35;;;3.70;41.80;;;;;;5033035;28;20042;-65
2022/03/12 02:52:16;;;;;;;10.70;4.95;;;3.70;41.80;;;;;;5033687;28;20033;-66
2022/03/12 02:54:43;;;;;;;11.52;5.13;;;3.80;41.80;;;;;;5033093;28;20474;-65
2022/03/12 02:57:09;;;;;;;11.02;4.50;;;3.80;41.70;;;;;;5032790;28;20033;-67
2022/03/12 02:59:35;;;;;;;9.25;5.07;;;3.80;41.60;;;;;;5032970;28;20041;-66
2022/03/12 03:02:03;;;;;;;11.45;5.10;;;3.70;41.50;;;;;;5033031;28;20026;-66
2022/03/12 03:04:34;;;;;;;9.20;5.15;;;3.80;41.60;;;;;;5033171;28;20112;-66
2022/03/12 03:07:00;;;;;;;11.70;5.13;;;3.70;41.20;;;;;;5032729;28;20041;-66
2022/03/12 03:09:26;;;;;;;11.75;4.90;;;3.70;41.30;;;;;;5032644;28;20459;-66
2022/03/12 03:11:53;;;;;;;10.10;5.30;;;3.70;41.20;;;;;;5032452;28;20049;-66
2022/03/12 03:14:19;;;;;;;10.68;4.88;;;3.70;41.20;;;;;;5031421;28;20044;-65
2022/03/12 03:16:45;;;;;;;14.35;4.95;;;3.70;41.20;;;;;;5032946;28;20029;-65
2022/03/12 03:19:11;;;;;;;11.30;4.50;;;3.70;41.40;;;;;;5032547;28;20056;-67
2022/03/12 03:21:38;;;;;;;15.85;4.97;;;3.70;41.20;;;;;;5032403;28;20030;-66
2022/03/12 03:24:05;;;;;;;9.70;4.47;;;3.70;41.10;;;;;;5032453;28;20040;-66
2022/03/12 03:26:54;;;;;;;11.13;5.70;;;3.70;41.00;;;;;;5032340;28;20116;-67
2022/03/12 03:29:21;;;;;;;10.05;4.72;;;3.60;40.90;;;;;;5032301;28;20029;-67
2022/03/12 03:31:47;;;;;;;9.55;4.78;;;3.60;41.00;;;;;;5032531;28;20053;-66
2022/03/12 03:34:14;;;;;;;13.00;5.00;;;3.50;40.90;;;;;;5032054;28;20096;-67
2022/03/12 03:36:39;;;;;;;8.90;4.47;;;3.50;40.90;;;;;;5032297;28;20040;-68
2022/03/12 03:39:06;;;;;;;12.07;4.65;;;3.60;40.90;;;;;;5032246;28;20029;-65
2022/03/12 03:41:33;;;;;;;9.05;4.78;;;3.60;40.70;;;;;;5031249;28;20360;-66
2022/03/12 03:43:59;;;;;;;10.65;4.80;;;3.60;40.60;;;;;;5031972;28;20028;-66
2022/03/12 03:46:24;;;;;;;12.48;4.53;;;3.50;40.70;;;;;;5032458;28;20025;-67
2022/03/12 03:48:52;;;;;;;12.38;5.18;;;3.50;40.80;;;;;;5031932;28;20390;-65
2022/03/12 03:51:19;;;;;;;8.73;4.03;;;3.50;40.80;;;;;;5031847;28;20087;-67
2022/03/12 03:53:44;;;;;;;9.57;4.72;;;3.40;41.20;;;;;;5031761;28;20049;-67
2022/03/12 03:56:10;;;;;;;9.00;4.32;;;3.40;40.60;;;;;;5031546;28;20037;-66
2022/03/12 03:58:37;;;;;;;7.57;3.80;;;3.50;40.40;;;;;;5032162;28;20033;-66
2022/03/12 04:01:12;;;;;;;13.25;4.65;;;3.50;40.30;;;;;;5031709;28;20040;-67
2022/03/12 04:03:42;;;;;;;12.98;5.18;;;3.60;40.30;;;;;;5031765;28;20035;-66
2022/03/12 04:06:08;;;;;;;11.95;4.40;;;3.50;40.30;;;;;;5030568;28;20041;-66
2022/03/12 04:08:35;;;;;;;11.05;4.72;;;3.50;40.30;;;;;;5031620;28;20045;-65
2022/03/12 04:11:05;;;;;;;11.75;4.85;;;3.50;40.40;;;;;;5031352;28;20030;-66
2022/03/12 04:13:32;;;;;;;10.27;4.30;;;3.50;40.60;;;;;;5032000;28;20411;-66
2022/03/12 04:15:59;;;;;;;11.13;4.32;;;3.50;40.60;;;;;;5031476;28;20038;-65
2022/03/12 04:18:25;;;;;;;10.23;4.28;;;3.40;40.70;;;;;;5031518;28;20130;-65
2022/03/12 04:20:51;;;;;;;13.88;4.60;;;3.40;40.80;;;;;;5031546;28;20518;-66
2022/03/12 04:23:24;;;;;;;9.52;4.85;;;3.40;40.80;;;;;;5030185;28;20208;-67
2022/03/12 04:25:52;;;;;;;13.55;4.57;;;3.50;40.90;;;;;;5031614;28;20036;-67
2022/03/12 04:28:19;;;;;;;8.27;4.00;;;3.40;41.00;;;;;;5031376;28;20155;-65
2022/03/12 04:30:45;;;;;;;10.82;4.70;;;3.50;41.00;;;;;;5030115;28;20383;-67
2022/03/12 04:33:12;;;;;;;11.05;4.80;;;3.40;41.00;;;;;;5031110;28;20030;-67
2022/03/12 04:35:38;;;;;;;9.15;4.47;;;3.50;40.90;;;;;;5030293;28;20041;-66
2022/03/12 04:38:04;;;;;;;13.60;4.57;;;3.40;41.00;;;;;;5031351;28;20179;-66
2022/03/12 04:40:30;;;;;;;9.77;5.10;;;3.40;41.00;;;;;;5031379;28;20104;-66
2022/03/12 04:42:56;;;;;;;8.57;4.75;;;3.30;41.00;;;;;;5031292;28;20180;-67
2022/03/12 04:45:25;;;;;;;9.48;4.03;;;3.30;41.20;;;;;;5031276;28;20132;-66
2022/03/12 04:47:52;;;;;;;8.05;3.67;;;3.20;41.30;;;;;;5029851;28;20076;-65
2022/03/12 04:50:20;;;;;;;15.47;4.80;;;3.20;41.30;;;;;;5030921;28;20038;-66
2022/03/12 04:52:48;;;;;;;11.07;3.53;;;3.40;41.30;;;;;;5034058;28;20056;-66
2022/03/12 04:55:15;;;;;;;;;;;3.40;41.00;;;;;;5037974;28;20037;-68
2022/03/12 04:57:41;;;;;;;7.53;3.70;;;3.40;40.80;;;;;;5037513;28;19917;-66
2022/03/12 05:00:15;;;;;;;11.40;4.28;;;3.50;40.90;;;;;;5037416;28;20037;-66
2022/03/12 05:02:41;;;;;;;9.32;4.28;;;3.50;40.80;;;;;;5037424;28;20034;-67
2022/03/12 05:05:11;;;;;;;12.07;4.68;;;3.30;40.80;;;;;;5037313;28;20084;-65
2022/03/12 05:07:38;;;;;;;11.52;3.92;;;3.40;40.80;;;;;;5038312;28;20438;-65
2022/03/12 05:10:05;;;;;;;11.57;4.30;;;3.40;40.60;;;;;;5037354;28;20056;-67
2022/03/12 05:12:31;;;;;;;8.93;4.20;;;3.30;40.70;;;;;;5037375;28;20030;-66
2022/03/12 05:14:58;;;;;;;8.32;4.10;;;3.30;40.70;;;;;;5037287;28;20112;-65
2022/03/12 05:17:26;;;;;;;9.60;3.85;;;3.30;41.00;;;;;;5037618;28;20029;-65
2022/03/12 05:19:52;;;;;;;;;;;3.40;40.90;;;;;;5038072;28;20049;-68
2022/03/12 05:22:18;;;;;;;7.97;3.85;;;3.40;40.80;;;;;;5038010;28;19952;-68
2022/03/12 05:24:43;;;;;;;14.02;3.75;;;3.40;40.80;;;;;;5037328;28;20256;-65
2022/03/12 05:27:14;;;;;;;8.93;3.90;;;3.30;40.70;;;;;;5037393;28;20037;-66
2022/03/12 05:29:41;;;;;;;9.45;3.97;;;3.40;40.90;;;;;;5037539;28;20037;-65
2022/03/12 05:32:12;;;;;;;12.38;4.55;;;3.40;41.00;;;;;;5037080;28;20083;-66
2022/03/12 05:34:38;;;;;;;8.98;3.60;;;3.40;40.80;;;;;;5037858;28;20067;-66
2022/03/12 05:37:06;;;;;;;9.00;3.80;;;3.40;40.90;;;;;;5036177;28;20525;-66
2022/03/12 05:39:32;;;;;;;7.85;3.92;;;3.50;40.70;;;;;;5037164;28;20407;-66
2022/03/12 05:41:59;;;;;;;10.25;4.38;;;3.50;40.70;;;;;;5037053;28;20034;-66
2022/03/12 05:44:27;;;;;;;8.68;4.22;;;3.50;40.50;;;;;;5035991;28;20026;-66
2022/03/12 05:46:52;;;;;;;10.43;4.18;;;3.50;40.40;;;;;;5036939;28;20021;-67
2022/03/12 05:49:19;;;;;;;11.35;4.15;;;3.40;40.50;;;;;;5036565;28;20018;-66
2022/03/12 05:51:44;;;;;;;12.52;3.67;;;3.40;40.50;;;;;;5035822;28;20124;-67
2022/03/12 05:54:10;;;;;;;8.07;4.00;;;3.30;40.50;;;;;;5036991;28;20100;-67
2022/03/12 05:56:39;;;;;;;11.77;4.35;;;3.30;40.60;;;;;;5036993;28;20032;-65
2022/03/12 05:59:06;;;;;;;9.50;3.92;;;3.40;40.50;;;;;;5036924;28;20018;-65
2022/03/12 06:01:31;;;;;;;11.38;3.95;;;3.40;40.40;;;;;;5037562;28;20025;-67
2022/03/12 06:04:00;;;;;;;6.97;3.47;;;3.50;40.20;;;;;;5035394;28;20040;-66
2022/03/12 06:06:27;;;;;;;9.40;4.18;;;3.50;40.10;;;;;;5033994;28;20029;-67
2022/03/12 06:08:58;;;;;;;9.23;4.28;;;3.50;40.40;;;;;;5033802;28;20052;-66
2022/03/12 06:11:25;;;;;;;10.73;4.20;;;3.50;40.40;;;;;;5033766;28;20041;-66
2022/03/12 06:14:00;;;;;;;8.25;3.83;;;3.50;40.30;;;;;;5033723;28;20485;-66
2022/03/12 06:16:27;;;;;;;10.30;3.72;;;3.50;40.30;;;;;;5034066;28;20026;-66
2022/03/12 06:18:53;;;;;;;9.02;4.03;;;3.60;40.40;;;;;;5033620;28;20386;-67
2022/03/12 06:21:20;;;;;;;10.23;3.97;;;3.60;40.20;;;;;;5033635;28;20550;-66
2022/03/12 06:23:46;;;;;;;11.57;4.20;;;3.80;40.20;;;;;;5033560;28;20044;-65
2022/03/12 06:26:14;;;;;;;8.85;3.78;;;3.90;40.10;;;;;;5033630;28;20021;-66
2022/03/12 06:28:41;;;;;;;8.75;3.72;;;3.90;39.90;;;;;;5034107;28;20084;-67
2022/03/12 06:31:12;;;;;;;7.78;3.72;;;4.00;39.90;;;;;;5033305;28;20037;-66
2022/03/12 06:33:38;;;;;;;13.57;3.90;;;4.00;40.00;;;;;;5033215;28;20131;-67
2022/03/12 06:36:04;;;;;;;6.30;3.53;;;4.00;39.90;;;;;;5033394;28;20048;-66
2022/03/12 06:38:31;;;;;;;9.05;4.95;;;4.00;40.40;;;;;;5033275;28;20526;-66
2022/03/12 06:40:58;;;;;;;10.68;4.68;;;3.90;40.40;;;;;;5032995;28;20371;-66
2022/03/12 06:43:28;;;;;;;18.90;7.15;;;3.90;40.40;;;;;;5033650;28;20347;-66
2022/03/12 06:45:58;;;;;;;18.75;7.28;;;3.90;40.50;;;;;;5032581;28;20040;-65
2022/03/12 06:48:25;;;;;;;13.45;4.60;;;4.00;40.40;;;;;;5031934;28;20041;-67
2022/03/12 06:50:51;;;;;;;11.18;4.00;;;4.10;40.40;;;;;;5031812;28;20102;-67
2022/03/12 06:53:17;;;;;;;10.57;4.22;;;4.00;40.20;;;;;;5032829;28;20650;-65
2022/03/12 06:55:43;;;;;;;9.43;4.25;;;4.00;40.00;;;;;;5033373;28;20056;-66
2022/03/12 06:58:09;;;;;;;9.95;4.05;;;4.10;40.20;;;;;;5031770;28;20069;-67
2022/03/12 07:00:35;;;;;;;9.02;3.28;;;4.10;40.10;;;;;;5032892;28;20033;-65
2022/03/12 07:03:01;;;;;;;10.90;4.15;;;4.10;40.00;;;;;;5032921;28;20057;-66
2022/03/12 07:05:27;;;;;;;7.53;4.07;;;4.10;39.90;;;;;;5031721;28;20037;-68
2022/03/12 07:07:53;;;;;;;8.13;3.88;;;4.20;39.90;;;;;;5033061;28;20400;-66
2022/03/12 07:10:20;;;;;;;10.90;3.67;;;4.20;39.80;;;;;;5033292;28;20116;-67
2022/03/12 07:12:46;;;;;;;8.50;3.88;;;4.30;39.80;;;;;;5032467;28;20041;-66
2022/03/12 07:15:13;;;;;;;7.68;3.72;;;4.30;39.80;;;;;;5032203;28;20088;-66
2022/03/12 07:17:41;;;;;;;6.88;3.58;;;4.20;39.80;;;;;;5031752;28;20038;-66
2022/03/12 07:20:07;;;;;;;7.85;3.65;;;4.30;39.90;;;;;;5032516;28;20354;-66
2022/03/12 07:22:33;;;;;;;7.75;3.35;;;4.30;39.80;;;;;;5031842;28;20374;-65
2022/03/12 07:24:59;;;;;;;7.43;3.25;;;4.30;39.90;;;;;;5031206;28;20029;-66
2022/03/12 07:27:25;;;;;;;11.15;3.47;;;4.40;39.90;;;;;;5031315;28;20112;-66
2022/03/12 07:29:52;;;;;;;9.25;3.53;;;4.40;39.80;;;;;;5032352;28;20034;-67
2022/03/12 07:32:17;;;;;;;9.00;3.47;;;4.60;39.70;;;;;;5031041;28;20052;-68
2022/03/12 07:34:43;;;;;;;7.63;3.67;;;4.60;39.40;;;;;;5031604;28;20034;-66
2022/03/12 07:37:11;;;;;;;11.57;4.10;;;4.70;39.40;;;;;;5032221;28;20422;-68
2022/03/12 07:39:40;;;;;;;15.18;6.05;;;4.70;39.40;;;;;;5032159;28;20080;-71
2022/03/12 07:42:06;;;;;;;11.95;5.85;;;4.70;39.30;;;;;;5032015;28;20370;-71
2022/03/12 07:44:32;;;;;;;10.65;4.13;;;4.80;39.40;;;;;;5031971;28;20039;-69
2022/03/12 07:46:58;;;;;;;9.52;3.70;;;4.80;39.20;;;;;;5031732;28;20030;-71
2022/03/12 07:49:25;;;;;;;7.10;3.72;;;4.90;39.20;;;;;;5032320;28;20064;-69
2022/03/12 07:51:52;;;;;;;9.63;3.90;;;5.00;39.20;;;;;;5031617;28;20120;-70
2022/03/12 07:54:17;;;;;;;14.07;4.55;;;5.00;39.20;;;;;;5031818;28;20029;-67
2022/03/12 07:56:43;;;;;;;9.73;3.50;;;5.10;39.20;;;;;;5031698;28;20336;-68
2022/03/12 07:59:10;;;;;;;9.30;3.47;;;5.20;39.00;;;;;;5030363;28;20079;-70
2022/03/12 08:01:36;;;;;;;8.00;3.75;;;5.30;39.20;;;;;;5031994;28;20112;-69
2022/03/12 08:04:02;;;;;;;9.93;4.25;;;5.30;39.20;;;;;;5032050;28;20117;-70
2022/03/12 08:06:29;;;;;;;9.13;3.53;;;5.40;39.20;;;;;;5029215;28;20033;-67
2022/03/12 08:08:55;;;;;;;8.02;3.28;;;5.50;39.10;;;;;;5011901;28;20081;-68
2022/03/12 08:11:32;;;;;;;10.00;3.75;;;5.70;39.00;;;;;;5010498;28;20045;-67
2022/03/12 08:14:02;;;;;;;8.98;3.80;;;5.70;38.70;;;;;;5011772;28;20034;-69
2022/03/12 08:16:29;;;;;;;8.32;3.92;;;5.90;38.20;;;;;;5012104;28;20159;-68
2022/03/12 08:18:54;;;;;;;9.95;4.18;;;6.00;38.10;;;;;;5010740;28;20034;-68
2022/03/12 08:21:21;;;;;;;7.35;3.22;;;6.10;38.00;;;;;;5011531;28;20136;-69
2022/03/12 08:23:47;;;;;;;8.48;3.75;;;6.20;37.60;;;;;;5011542;28;20563;-67
2022/03/12 08:26:13;;;;;;;7.47;3.80;;;6.30;37.20;;;;;;5011473;28;20061;-69
2022/03/12 08:28:39;;;;;;;6.15;3.47;;;6.40;37.00;;;;;;5010382;28;20452;-68
2022/03/12 08:31:05;;;;;;;7.95;3.40;;;6.50;36.50;;;;;;5010328;28;20038;-68
2022/03/12 08:33:32;;;;;;;6.60;3.90;;;6.60;36.40;;;;;;5011362;28;20494;-70
2022/03/12 08:36:00;;;;;;;7.30;3.50;;;6.70;36.40;;;;;;5011237;28;20416;-71
2022/03/12 08:38:26;;;;;;;9.45;4.57;;;6.80;36.60;;;;;;5010083;28;20057;-71
2022/03/12 08:40:52;;;;;;;5.25;3.10;;;7.00;35.90;;;;;;5011286;28;20064;-70
2022/03/12 08:43:18;;;;;;;9.57;3.50;;;7.10;35.50;;;;;;5010473;28;20471;-71
2022/03/12 08:45:44;;;;;;;7.25;3.33;;;7.20;35.30;;;;;;5011117;28;20050;-71
2022/03/12 08:48:10;;;;;;;7.20;3.53;;;7.30;34.40;;;;;;5009935;28;20042;-73
2022/03/12 08:50:35;;;;;;;7.10;3.28;;;7.40;34.30;;;;;;5011053;28;20385;-71
2022/03/12 08:53:01;;;;;;;7.00;3.55;;;7.60;33.70;;;;;;5010100;28;20115;-71
2022/03/12 08:55:27;;;;;;;4.80;3.17;;;7.70;33.00;;;;;;5011522;28;20026;-70
2022/03/12 08:57:53;;;;;;;4.65;2.72;;;7.80;33.00;;;;;;5011155;28;20463;-72
2022/03/12 09:00:20;;;;;;;5.88;3.20;;;8.00;32.80;;;;;;5010994;28;20036;-70
2022/03/12 09:02:47;;;;;;;14.07;3.60;;;8.20;32.70;;;;;;5011245;28;20034;-70
2022/03/12 09:05:14;;;;;;;8.48;3.20;;;8.90;32.70;;;;;;5011109;28;20049;-72
2022/03/12 09:07:41;;;;;;;11.65;3.65;;;10.70;31.80;;;;;;5011756;28;20101;-70
2022/03/12 09:10:09;;;;;;;5.78;3.30;;;12.30;31.10;;;;;;5010918;28;20054;-71
2022/03/12 09:12:35;;;;;;;7.03;3.25;;;13.80;30.70;;;;;;5010988;28;20515;-72
2022/03/12 09:15:00;;;;;;;10.73;3.70;;;15.20;29.20;;;;;;5011094;28;20109;-74
2022/03/12 09:17:26;;;;;;;7.05;3.90;;;16.10;27.70;;;;;;5011012;28;20436;-75
2022/03/12 09:19:51;;;;;;;8.70;3.30;;;16.30;27.10;;;;;;5011326;28;20033;-70
2022/03/12 09:22:17;;;;;;;5.25;3.40;;;17.00;27.60;;;;;;5010215;28;20486;-72
2022/03/12 09:24:43;;;;;;;6.32;3.25;;;17.60;27.00;;;;;;5010912;28;20061;-71
2022/03/12 09:27:08;;;;;;;8.25;3.63;;;18.30;26.80;;;;;;5010789;28;20029;-71
2022/03/12 09:29:35;;;;;;;6.60;3.78;;;18.90;25.40;;;;;;5011032;28;20045;-71
2022/03/12 09:32:01;;;;;;;6.22;3.67;;;19.00;25.40;;;;;;5010818;28;20064;-73
2022/03/12 09:34:27;;;;;;;6.82;3.60;;;19.40;25.30;;;;;;5011115;28;20022;-72
2022/03/12 09:36:53;;;;;;;5.82;3.63;;;19.50;25.00;;;;;;5010712;28;20026;-72
2022/03/12 09:39:19;;;;;;;9.90;4.60;;;19.40;24.60;;;;;;5010314;28;20486;-74
2022/03/12 09:41:44;;;;;;;6.35;3.80;;;19.90;24.70;;;;;;5014400;28;20049;-74
2022/03/12 09:44:10;;;;;;;7.90;4.10;;;20.40;24.80;;;;;;5014306;28;20380;-73
2022/03/12 09:46:37;;;;;;;8.32;4.65;;;20.80;24.20;;;;;;5014794;28;20030;-72
2022/03/12 09:49:04;;;;;;;7.15;4.38;;;21.00;24.50;;;;;;5014046;28;20075;-74
2022/03/12 09:51:31;;;;;;;7.95;3.63;;;21.40;24.10;;;;;;5014294;28;20212;-71
2022/03/12 09:53:58;;;;;;;6.40;3.83;;;22.00;24.00;;;;;;5014336;28;20046;-71
2022/03/12 09:56:24;;;;;;;7.05;4.28;;;22.20;23.60;;;;;;5014111;28;20034;-71
2022/03/12 09:58:50;;;;;;;6.22;3.83;;;22.10;23.10;;;;;;5014964;28;20087;-71
2022/03/12 10:01:15;;;;;;;5.22;3.40;;;22.70;23.90;;;;;;5014129;28;20471;-71
2022/03/12 10:03:42;;;;;;;6.85;3.92;;;23.20;23.80;;;;;;5013838;28;20060;-72
2022/03/12 10:06:08;;;;;;;5.72;3.67;;;23.50;23.20;;;;;;5014096;28;20045;-71
2022/03/12 10:08:34;;;;;;;9.02;4.40;;;23.80;23.80;;;;;;5013848;28;20441;-71
2022/03/12 10:10:59;;;;;;;10.23;4.40;;;24.10;23.20;;;;;;5013614;28;20030;-71
2022/03/12 10:13:25;;;;;;;9.25;3.85;;;24.80;23.50;;;;;;5014341;28;20018;-71
2022/03/12 10:15:51;;;;;;;8.23;4.10;;;24.70;24.10;;;;;;5013688;28;20121;-73
2022/03/12 10:18:17;;;;;;;7.80;4.30;;;24.10;23.30;;;;;;5013702;28;20574;-71
2022/03/12 10:20:43;;;;;;;7.95;3.72;;;24.20;24.20;;;;;;5013670;28;20034;-72
2022/03/12 10:23:10;;;;;;;9.80;4.28;;;23.40;23.00;;;;;;5012382;28;20018;-73
2022/03/12 10:25:37;;;;;;;7.68;4.15;;;23.60;23.00;;;;;;5013051;28;20072;-72
2022/03/12 10:28:02;;;;;;;5.55;3.70;;;23.80;23.20;;;;;;5013556;28;20503;-73
2022/03/12 10:30:28;;;;;;;6.25;4.00;;;23.60;23.10;;;;;;5013519;28;20034;-72
2022/03/12 10:32:55;;;;;;;8.57;4.15;;;23.60;23.20;;;;;;5013538;28;20030;-72
2022/03/12 10:35:22;;;;;;;7.10;4.25;;;24.20;22.90;;;;;;5013126;28;20026;-72
2022/03/12 10:37:50;;;;;;;5.72;4.03;;;24.50;23.30;;;;;;5013860;28;20050;-73
2022/03/12 10:40:17;;;;;;;6.57;4.20;;;24.70;22.70;;;;;;5012499;28;20383;-71
2022/03/12 10:42:50;;;;;;;7.60;4.53;;;24.90;23.20;;;;;;5013224;28;20042;-72
2022/03/12 10:45:18;;;;;;;8.57;4.38;;;25.10;22.70;;;;;;5012022;28;20084;-72
2022/03/12 10:47:45;;;;;;;6.45;3.97;;;26.10;22.80;;;;;;5012997;28;20053;-75
2022/03/12 10:50:25;;;;;;;6.32;4.65;;;25.80;22.20;;;;;;5012856;28;20037;-72
2022/03/12 10:52:53;;;;;;;8.88;3.85;;;26.60;22.40;;;;;;5013286;28;20402;-73
2022/03/12 10:55:33;;;;;;;7.68;4.03;;;27.00;22.20;;;;;;5013301;28;20033;-73
2022/03/12 10:58:03;;;;;;;9.13;4.05;;;27.00;22.00;;;;;;5011782;28;20130;-75
2022/03/12 11:00:32;;;;;;;5.85;4.03;;;27.20;21.90;;;;;;5011802;28;20093;-74
2022/03/12 11:03:03;;;;;;;8.50;4.43;;;26.70;21.90;;;;;;5012889;28;20542;-73
2022/03/12 11:05:32;;;;;;;7.90;5.07;;;26.30;22.50;;;;;;5013221;28;20033;-72
2022/03/12 11:08:19;;;;;;;8.30;4.60;;;26.50;22.30;;;;;;5011822;28;20092;-71
2022/03/12 11:10:53;;;;;;;9.20;4.40;;;26.50;21.70;;;;;;5013040;28;20029;-71
2022/03/12 11:13:35;;;;;;;6.78;4.32;;;25.80;22.10;;;;;;5012862;28;20041;-71
2022/03/12 11:16:14;;;;;;;8.00;4.50;;;26.50;22.10;;;;;;5012997;28;20036;-71
2022/03/12 11:18:52;;;;;;;13.10;8.52;;;26.80;21.80;;;;;;5012524;28;20026;-70
2022/03/12 11:21:37;;;;;;;10.30;4.97;;;26.60;22.10;;;;;;5011475;28;20045;-71
2022/03/12 11:24:06;;;;;;;6.05;4.30;;;26.40;22.00;;;;;;5012511;28;20049;-72
2022/03/12 11:26:48;;;;;;;6.43;4.57;;;26.40;22.00;;;;;;5011286;28;20041;-72
2022/03/12 11:29:15;;;;;;;6.07;4.30;;;26.50;21.80;;;;;;5012299;28;20479;-73
2022/03/12 11:32:02;;;;;;;9.63;4.57;;;26.30;22.40;;;;;;5012657;28;20026;-76
2022/03/12 11:34:38;;;;;;;10.75;4.85;;;26.10;23.60;;;;;;5011197;28;20034;-76
2022/03/12 11:37:21;;;;;;;7.75;4.93;;;26.10;23.30;;;;;;5012164;28;20035;-75
2022/03/12 11:39:52;;;;;;;10.40;5.80;;;25.70;23.20;;;;;;5012180;28;20061;-74
2022/03/12 11:42:20;;;;;;;10.20;4.35;;;25.50;23.60;;;;;;5012081;28;20030;-73
2022/03/12 11:44:50;;;;;;;7.35;4.90;;;24.90;23.40;;;;;;5012257;28;20029;-73
2022/03/12 11:47:21;;;;;;;10.80;5.22;;;24.40;23.40;;;;;;5011818;28;20045;-72
2022/03/12 11:49:48;;;;;;;8.35;4.80;;;24.30;23.70;;;;;;5012284;28;20475;-72
2022/03/12 11:52:15;;;;;;;9.63;5.00;;;23.50;23.90;;;;;;5010624;28;20049;-72
2022/03/12 11:54:43;;;;;;;8.73;4.63;;;22.60;24.10;;;;;;5010649;28;20030;-73
2022/03/12 11:57:19;;;;;;;9.32;5.47;;;22.30;24.10;;;;;;5011701;28;20526;-72
2022/03/12 11:59:45;;;;;;;10.75;5.57;;;21.70;24.40;;;;;;5011888;28;20403;-73
2022/03/12 12:02:25;;;;;;;7.20;4.95;;;20.60;24.60;;;;;;5011053;28;20029;-70
2022/03/12 12:04:52;;;;;;;12.20;5.20;;;20.20;25.00;;;;;;5011692;28;20014;-72
2022/03/12 12:07:21;;;;;;;10.67;5.27;;;20.00;25.50;;;;;;5012081;28;20026;-72
2022/03/12 12:09:47;;;;;;;12.20;5.72;;;19.70;25.70;;;;;;5010601;28;20132;-71
2022/03/12 12:12:13;;;;;;;7.95;4.65;;;19.30;25.40;;;;;;5011382;28;20125;-71
2022/03/12 12:14:43;;;;;;;6.32;4.63;;;18.90;25.80;;;;;;5011302;28;20733;-70
2022/03/12 12:17:10;;;;;;;9.70;5.20;;;18.50;25.90;;;;;;5010412;28;20029;-70
2022/03/12 12:19:36;;;;;;;13.07;5.05;;;18.30;26.10;;;;;;5011960;28;20022;-72
2022/03/12 12:22:02;;;;;;;8.85;5.22;;;18.00;26.30;;;;;;5011423;28;20113;-71
2022/03/12 12:24:33;;;;;;;8.88;4.90;;;17.80;26.40;;;;;;5011284;28;20037;-71
2022/03/12 12:27:06;;;;;;;8.80;4.68;;;17.70;26.50;;;;;;5011229;28;20030;-71
2022/03/12 12:29:41;;;;;;;9.70;5.40;;;17.60;26.60;;;;;;5011546;28;20026;-71
2022/03/12 12:32:08;;;;;;;9.27;4.70;;;17.50;26.60;;;;;;5011062;28;20034;-71
2022/03/12 12:34:37;;;;;;;11.20;5.18;;;17.20;27.20;;;;;;5011755;28;20033;-72
2022/03/12 12:37:03;;;;;;;9.73;5.43;;;17.20;26.80;;;;;;5009957;28;20029;-71
2022/03/12 12:39:30;;;;;;;12.02;4.72;;;17.10;26.90;;;;;;5009987;28;20121;-70
2022/03/12 12:42:01;;;;;;;7.93;5.10;;;16.90;27.00;;;;;;5011071;28;20038;-71
2022/03/12 12:44:39;;;;;;;15.93;6.00;;;16.80;27.00;;;;;;5010154;28;20113;-71
2022/03/12 12:47:07;;;;;;;11.90;5.82;;;16.70;27.30;;;;;;5011122;28;20459;-71
2022/03/12 12:49:40;;;;;;;9.80;4.90;;;16.60;27.40;;;;;;5011631;28;20084;-70
2022/03/12 12:52:07;;;;;;;13.63;5.93;;;16.50;27.50;;;;;;5009802;28;20371;-70
2022/03/12 12:54:59;;;;;;;8.65;5.30;;;16.50;27.80;;;;;;5010052;28;20030;-70